createdAt,value
2019-03-17T00:01:15.581Z,96.70
2019-03-17T00:03:41.651Z,96.60
2019-03-17T00:06:07.984Z,96.50
2019-03-17T00:08:34.156Z,96.50
2019-03-17T00:11:00.376Z,96.50
2019-03-17T00:13:26.439Z,96.50
2019-03-17T00:15:52.529Z,96.50
2019-03-17T00:18:18.643Z,96.40
2019-03-17T00:20:44.776Z,96.50
2019-03-17T00:23:10.893Z,96.40
2019-03-17T00:25:37.071Z,96.50
2019-03-17T00:28:03.141Z,96.60
2019-03-17T00:30:29.224Z,96.70
2019-03-17T00:32:55.293Z,96.70
2019-03-17T00:35:21.366Z,96.70
2019-03-17T00:37:47.428Z,96.70
2019-03-17T00:40:13.493Z,96.70
2019-03-17T00:42:39.661Z,96.70
2019-03-17T00:45:07.740Z,96.60
2019-03-17T00:47:33.822Z,96.50
2019-03-17T00:49:59.875Z,96.50
2019-03-17T00:52:26.013Z,96.40
2019-03-17T00:54:52.237Z,96.40
2019-03-17T00:57:18.321Z,96.50
2019-03-17T00:59:44.449Z,96.60
2019-03-17T01:02:10.528Z,97.00
2019-03-17T01:04:36.700Z,97.10
2019-03-17T01:07:02.951Z,96.90
2019-03-17T01:09:29.076Z,97.00
2019-03-17T01:11:55.289Z,96.90
2019-03-17T01:14:21.452Z,97.00
2019-03-17T01:16:47.521Z,97.10
2019-03-17T01:19:13.597Z,97.00
2019-03-17T01:21:39.663Z,97.10
2019-03-17T01:24:05.824Z,97.20
2019-03-17T01:26:31.901Z,97.30
2019-03-17T01:28:57.968Z,97.70
2019-03-17T01:31:24.088Z,97.70
2019-03-17T01:48:29.094Z,97.60
2019-03-17T01:50:55.296Z,97.90
2019-03-17T01:53:21.351Z,98.00
2019-03-17T01:55:47.431Z,98.00
2019-03-17T01:58:13.521Z,98.00
2019-03-17T02:00:39.687Z,98.00
2019-03-17T02:03:05.773Z,98.10
2019-03-17T02:05:31.872Z,98.00
2019-03-17T02:07:57.953Z,98.00
2019-03-17T02:10:24.033Z,98.00
2019-03-17T02:12:50.097Z,98.20
2019-03-17T02:15:16.211Z,98.00
2019-03-17T02:17:42.353Z,98.00
2019-03-17T02:20:09.236Z,98.00
2019-03-17T02:22:35.296Z,98.00
2019-03-17T02:25:01.702Z,97.90
2019-03-17T02:27:27.845Z,98.00
2019-03-17T02:29:54.016Z,97.90
2019-03-17T02:32:20.193Z,97.90
2019-03-17T02:34:46.258Z,97.90
2019-03-17T02:37:12.563Z,97.90
2019-03-17T02:39:38.756Z,97.90
2019-03-17T02:42:04.917Z,97.90
2019-03-17T02:44:31.073Z,97.90
2019-03-17T02:46:57.148Z,98.20
2019-03-17T02:49:23.253Z,98.20
2019-03-17T02:51:49.344Z,98.20
2019-03-17T02:54:15.436Z,98.20
2019-03-17T02:56:41.520Z,98.20
2019-03-17T02:59:07.607Z,98.20
2019-03-17T03:01:33.705Z,98.10
2019-03-17T03:03:59.778Z,98.10
2019-03-17T03:06:25.940Z,98.10
2019-03-17T03:08:52.073Z,98.20
2019-03-17T03:11:18.153Z,98.20
2019-03-17T03:13:44.340Z,98.20
2019-03-17T03:16:10.517Z,98.20
2019-03-17T03:18:36.638Z,98.20
2019-03-17T03:21:02.912Z,98.10
2019-03-17T03:23:29.050Z,98.10
2019-03-17T03:25:55.170Z,98.00
2019-03-17T03:28:21.442Z,98.00
2019-03-17T03:30:47.612Z,98.00
2019-03-17T03:33:13.759Z,98.00
2019-03-17T03:35:40.021Z,98.00
2019-03-17T03:38:06.130Z,98.10
2019-03-17T03:40:32.633Z,98.10
2019-03-17T03:42:58.939Z,98.10
2019-03-17T03:45:25.040Z,98.10
2019-03-17T03:47:51.198Z,98.20
2019-03-17T03:50:17.355Z,98.10
2019-03-17T03:52:43.424Z,98.10
2019-03-17T03:55:09.736Z,98.10
2019-03-17T03:57:35.841Z,98.00
2019-03-17T04:00:05.253Z,98.00
2019-03-17T04:02:31.414Z,98.00
2019-03-17T04:04:57.596Z,98.00
2019-03-17T04:07:23.742Z,98.00
2019-03-17T04:09:49.900Z,98.00
2019-03-17T04:12:15.964Z,98.10
2019-03-17T04:14:42.029Z,98.10
2019-03-17T04:17:08.155Z,98.20
2019-03-17T04:19:34.297Z,98.20
2019-03-17T04:22:00.509Z,98.20
2019-03-17T04:24:26.915Z,98.30
2019-03-17T04:26:52.979Z,98.20
2019-03-17T04:29:19.056Z,98.20
2019-03-17T04:31:45.135Z,98.50
2019-03-17T04:34:11.254Z,98.30
2019-03-17T04:36:40.388Z,98.30
2019-03-17T04:39:05.533Z,98.30
2019-03-17T04:41:31.829Z,98.40
2019-03-17T04:43:57.947Z,98.30
2019-03-17T04:46:24.075Z,98.30
2019-03-17T04:48:50.301Z,98.30
2019-03-17T04:51:16.536Z,98.20
2019-03-17T04:53:42.836Z,98.10
2019-03-17T04:56:09.052Z,98.00
2019-03-17T04:58:35.127Z,98.10
2019-03-17T05:01:01.202Z,98.20
2019-03-17T05:03:27.289Z,98.20
2019-03-17T05:05:53.402Z,98.30
2019-03-17T05:08:19.473Z,98.40
2019-03-17T05:10:45.574Z,98.50
2019-03-17T05:13:11.644Z,98.80
2019-03-17T05:15:37.719Z,98.70
2019-03-17T05:18:03.817Z,98.60
2019-03-17T05:20:29.881Z,98.60
2019-03-17T05:22:55.937Z,98.60
2019-03-17T05:25:22.118Z,98.70
2019-03-17T05:27:48.243Z,98.90
2019-03-17T05:30:14.528Z,98.70
2019-03-17T05:32:40.680Z,98.80
2019-03-17T05:35:06.964Z,98.90
2019-03-17T05:37:33.027Z,98.80
2019-03-17T05:39:59.470Z,98.80
2019-03-17T05:42:25.531Z,98.70
2019-03-17T05:44:51.630Z,98.70
2019-03-17T05:47:17.726Z,98.60
2019-03-17T05:49:43.866Z,98.60
2019-03-17T05:52:09.993Z,98.70
2019-03-17T05:54:36.079Z,98.70
2019-03-17T05:57:02.176Z,98.60
2019-03-17T05:59:28.321Z,98.70
2019-03-17T06:01:54.401Z,98.90
2019-03-17T06:04:20.523Z,98.90
2019-03-17T06:06:46.619Z,98.90
2019-03-17T06:09:12.842Z,98.90
2019-03-17T06:11:39.083Z,99.00
2019-03-17T06:14:05.263Z,99.00
2019-03-17T06:16:31.397Z,99.10
2019-03-17T06:18:57.586Z,99.40
2019-03-17T06:21:23.697Z,99.10
2019-03-17T06:23:49.758Z,99.10
2019-03-17T06:26:15.844Z,99.20
2019-03-17T06:28:41.938Z,99.50
2019-03-17T06:31:08.033Z,99.40
2019-03-17T06:33:34.141Z,99.50
2019-03-17T06:36:00.312Z,99.40
2019-03-17T06:38:26.421Z,99.60
2019-03-17T06:40:52.509Z,99.60
2019-03-17T06:43:18.596Z,99.80
2019-03-17T06:45:44.675Z,99.70
2019-03-17T06:48:10.839Z,99.70
2019-03-17T06:50:36.907Z,99.60
2019-03-17T06:53:03.019Z,99.60
2019-03-17T06:55:29.221Z,99.70
2019-03-17T06:57:55.369Z,99.60
2019-03-17T07:00:21.553Z,99.60
2019-03-17T07:02:47.695Z,99.90
2019-03-17T07:05:14.732Z,99.90
2019-03-17T07:07:44.404Z,99.90
2019-03-17T07:10:09.729Z,99.90
2019-03-17T07:12:35.801Z,99.90
2019-03-17T07:15:04.884Z,99.90
2019-03-17T07:17:30.956Z,99.90
2019-03-17T07:19:57.048Z,99.90
2019-03-17T07:22:23.150Z,99.90
2019-03-17T07:24:49.281Z,99.90
2019-03-17T07:27:15.345Z,99.90
2019-03-17T07:29:41.419Z,99.90
2019-03-17T07:32:08.238Z,99.90
2019-03-17T07:34:35.675Z,99.90
2019-03-17T07:37:02.584Z,99.90
2019-03-17T07:39:29.866Z,99.90
2019-03-17T07:41:55.979Z,99.90
2019-03-17T07:44:22.183Z,99.90
2019-03-17T07:46:48.333Z,99.90
2019-03-17T07:49:14.504Z,99.90
2019-03-17T07:51:40.572Z,99.90
2019-03-17T07:54:06.647Z,99.90
2019-03-17T07:56:32.724Z,99.90
2019-03-17T07:58:58.808Z,99.90
2019-03-17T08:01:24.963Z,99.90
2019-03-17T08:03:51.033Z,99.90
2019-03-17T08:06:17.093Z,99.90
2019-03-17T08:08:43.271Z,99.90
2019-03-17T08:11:09.475Z,99.90
2019-03-17T08:13:35.624Z,99.90
2019-03-17T08:16:01.699Z,99.90
2019-03-17T08:18:27.784Z,99.90
2019-03-17T08:20:54.076Z,99.90
2019-03-17T08:23:20.169Z,99.90
2019-03-17T08:25:46.326Z,99.90
2019-03-17T08:28:12.540Z,99.90
2019-03-17T08:30:38.664Z,99.90
2019-03-17T08:33:04.828Z,99.90
2019-03-17T08:35:30.887Z,99.90
2019-03-17T08:37:57.042Z,99.90
2019-03-17T08:40:23.180Z,99.90
2019-03-17T08:42:49.277Z,99.90
2019-03-17T08:45:15.462Z,99.90
2019-03-17T08:47:41.533Z,99.90
2019-03-17T08:50:12.938Z,99.90
2019-03-17T08:52:39.010Z,99.90
2019-03-17T08:55:06.381Z,99.90
2019-03-17T08:57:32.497Z,99.90
2019-03-17T08:59:58.666Z,99.90
2019-03-17T09:02:24.854Z,99.90
2019-03-17T09:04:50.965Z,99.90
2019-03-17T09:07:17.179Z,99.40
2019-03-17T09:09:43.309Z,99.60
2019-03-17T09:12:09.394Z,99.00
2019-03-17T09:14:35.489Z,99.20
2019-03-17T09:17:13.452Z,99.10
2019-03-17T09:19:29.565Z,97.90
2019-03-17T09:21:55.649Z,97.30
2019-03-17T09:24:21.712Z,97.60
2019-03-17T09:26:47.780Z,97.60
2019-03-17T09:29:13.856Z,98.00
2019-03-17T09:31:40.009Z,98.10
2019-03-17T09:34:06.129Z,97.30
2019-03-17T09:36:32.569Z,97.40
2019-03-17T09:38:58.861Z,96.40
2019-03-17T09:41:25.042Z,95.60
2019-03-17T09:43:51.234Z,96.00
2019-03-17T09:46:17.292Z,95.20
2019-03-17T09:48:43.370Z,95.00
2019-03-17T09:51:09.565Z,94.90
2019-03-17T09:53:35.723Z,95.70
2019-03-17T09:56:01.794Z,95.40
2019-03-17T09:58:27.892Z,94.70
2019-03-17T10:00:53.984Z,94.90
2019-03-17T10:03:20.083Z,92.70
2019-03-17T10:05:46.140Z,92.20
2019-03-17T10:08:12.259Z,93.20
2019-03-17T10:10:38.359Z,94.00
2019-03-17T10:13:04.420Z,94.30
2019-03-17T10:15:30.496Z,92.30
2019-03-17T10:17:56.565Z,91.00
2019-03-17T10:20:22.660Z,88.40
2019-03-17T10:22:48.835Z,91.90
2019-03-17T10:25:15.104Z,92.90
2019-03-17T10:27:41.477Z,92.40
2019-03-17T10:30:15.705Z,92.00
2019-03-17T10:32:41.774Z,89.10
2019-03-17T10:35:07.962Z,91.10
2019-03-17T10:37:34.071Z,90.70
2019-03-17T10:40:00.326Z,90.80
2019-03-17T10:42:26.447Z,89.90
2019-03-17T10:44:52.506Z,91.00
2019-03-17T10:47:18.586Z,90.40
2019-03-17T10:50:06.448Z,88.10
2019-03-17T10:52:32.513Z,89.80
2019-03-17T10:54:58.593Z,88.30
2019-03-17T10:57:24.749Z,90.10
2019-03-17T10:59:50.832Z,90.70
2019-03-17T11:02:16.923Z,89.30
2019-03-17T11:04:43.003Z,84.30
2019-03-17T11:07:09.110Z,86.30
2019-03-17T11:09:35.175Z,87.80
2019-03-17T11:12:01.258Z,87.10
2019-03-17T11:14:27.338Z,88.40
2019-03-17T11:16:53.423Z,88.10
2019-03-17T11:19:19.513Z,87.00
2019-03-17T11:21:45.589Z,87.40
2019-03-17T11:24:11.693Z,89.00
2019-03-17T11:26:37.777Z,83.80
2019-03-17T11:29:03.952Z,75.00
2019-03-17T11:31:30.015Z,80.10
2019-03-17T11:33:56.185Z,77.40
2019-03-17T11:36:22.250Z,78.60
2019-03-17T11:38:48.361Z,76.80
2019-03-17T11:41:14.537Z,81.80
2019-03-17T11:43:40.703Z,81.30
2019-03-17T11:46:06.798Z,83.20
2019-03-17T11:48:32.859Z,78.50
2019-03-17T11:50:59.040Z,75.80
2019-03-17T11:53:25.200Z,78.80
2019-03-17T11:55:51.276Z,72.90
2019-03-17T12:00:43.812Z,78.60
2019-03-17T12:03:09.880Z,75.80
2019-03-17T12:05:35.937Z,75.10
2019-03-17T12:08:02.021Z,75.70
2019-03-17T12:10:28.084Z,77.00
2019-03-17T12:12:54.176Z,78.90
2019-03-17T12:15:30.696Z,80.50
2019-03-17T12:17:56.758Z,77.40
2019-03-17T12:20:22.828Z,71.60
2019-03-17T12:22:49.104Z,65.00
2019-03-17T12:25:16.303Z,57.90
2019-03-17T12:27:42.364Z,65.30
2019-03-17T12:30:25.957Z,65.10
2019-03-17T12:32:53.140Z,68.30
2019-03-17T12:35:19.287Z,58.20
2019-03-17T12:37:45.579Z,54.10
2019-03-17T12:40:11.641Z,49.40
2019-03-17T12:42:37.713Z,45.40
2019-03-17T12:45:05.713Z,42.70
2019-03-17T12:47:31.799Z,42.40
2019-03-17T12:49:57.867Z,43.30
2019-03-17T12:52:23.941Z,42.50
2019-03-17T12:54:50.016Z,44.30
2019-03-17T12:57:16.180Z,45.10
2019-03-17T12:59:42.341Z,42.50
2019-03-17T13:02:08.500Z,42.50
2019-03-17T13:04:34.582Z,42.20
2019-03-17T13:07:00.633Z,43.00
2019-03-17T13:09:26.686Z,42.30
2019-03-17T13:11:52.769Z,42.20
2019-03-17T13:14:18.839Z,38.60
2019-03-17T13:16:44.912Z,41.90
2019-03-17T13:19:11.013Z,42.00
2019-03-17T13:21:37.080Z,39.90
2019-03-17T13:24:03.166Z,37.70
2019-03-17T13:26:29.268Z,38.80
2019-03-17T13:28:55.345Z,37.40
2019-03-17T13:31:21.433Z,38.10
2019-03-17T13:33:47.508Z,36.00
2019-03-17T13:36:13.609Z,37.50
2019-03-17T13:38:39.676Z,35.80
2019-03-17T13:41:05.749Z,35.60
2019-03-17T13:43:31.830Z,36.70
2019-03-17T13:45:57.916Z,35.50
2019-03-17T13:48:23.976Z,35.20
2019-03-17T13:50:50.072Z,32.90
2019-03-17T13:53:16.152Z,34.50
2019-03-17T13:55:42.208Z,32.90
2019-03-17T13:58:10.209Z,32.60
2019-03-17T14:00:36.286Z,32.30
2019-03-17T14:03:02.572Z,32.60
2019-03-17T16:44:28.025Z,39.70
2019-03-17T16:46:54.084Z,40.40
2019-03-17T16:49:20.228Z,40.80
2019-03-17T16:51:46.328Z,40.70
2019-03-17T16:54:12.459Z,40.60
2019-03-17T16:56:38.527Z,41.70
2019-03-17T16:59:04.638Z,41.80
2019-03-17T17:01:30.719Z,42.40
2019-03-17T17:03:56.833Z,42.60
2019-03-17T17:06:22.925Z,43.10
2019-03-17T17:08:49.851Z,44.10
2019-03-17T17:11:16.031Z,43.90
2019-03-17T17:13:42.239Z,44.70
2019-03-17T17:16:08.445Z,45.30
2019-03-17T17:18:34.568Z,45.20
2019-03-17T17:21:01.081Z,45.20
2019-03-17T17:23:27.228Z,45.90
2019-03-17T17:25:53.292Z,47.00
2019-03-17T17:28:19.433Z,47.20
2019-03-17T17:30:45.919Z,47.90
2019-03-17T17:33:12.096Z,48.60
2019-03-17T17:35:38.309Z,52.10
2019-03-17T17:38:04.443Z,55.80
2019-03-17T17:40:30.743Z,60.50
2019-03-17T17:42:57.159Z,67.40
2019-03-17T17:45:24.405Z,72.50
2019-03-17T17:47:51.151Z,76.70
2019-03-17T17:50:19.075Z,79.20
2019-03-17T17:52:45.362Z,83.50
2019-03-17T17:55:11.642Z,85.50
2019-03-17T17:57:37.758Z,85.90
2019-03-17T18:00:12.918Z,86.50
2019-03-17T18:02:38.996Z,88.30
2019-03-17T18:05:07.088Z,88.60
2019-03-17T18:07:33.212Z,88.00
2019-03-17T18:09:59.300Z,87.80
2019-03-17T18:12:25.534Z,88.40
2019-03-17T18:14:51.606Z,90.40
2019-03-17T18:17:17.815Z,90.60
2019-03-17T18:19:43.912Z,90.20
2019-03-17T18:22:10.160Z,90.80
2019-03-17T18:24:36.311Z,90.80
2019-03-17T18:27:02.496Z,90.80
2019-03-17T18:29:29.343Z,90.90
2019-03-17T18:31:56.106Z,90.90
2019-03-17T18:34:22.712Z,90.70
2019-03-17T18:36:55.222Z,90.90
2019-03-17T18:39:21.429Z,91.70
2019-03-17T18:41:47.625Z,92.40
2019-03-17T18:44:14.328Z,92.00
2019-03-17T18:46:41.050Z,92.50
2019-03-17T18:49:07.189Z,93.10
2019-03-17T18:51:33.422Z,92.80
2019-03-17T18:53:59.542Z,93.60
2019-03-17T18:56:26.831Z,93.80
2019-03-17T18:58:53.497Z,94.00
2019-03-17T19:01:20.583Z,94.30
2019-03-17T19:03:46.675Z,94.80
2019-03-17T19:06:12.781Z,94.20
2019-03-17T19:08:39.182Z,94.20
2019-03-17T19:11:05.288Z,94.20
2019-03-17T19:13:31.404Z,95.00
2019-03-17T19:15:57.570Z,94.90
2019-03-17T19:18:23.742Z,95.40
2019-03-17T19:20:49.985Z,96.30
2019-03-17T19:23:16.127Z,96.90
2019-03-17T19:25:42.233Z,97.30
2019-03-17T19:28:08.355Z,97.50
2019-03-17T19:30:34.563Z,98.40
2019-03-17T19:33:00.673Z,98.50
2019-03-17T19:35:26.859Z,98.90
2019-03-17T19:37:52.948Z,99.20
2019-03-17T19:40:20.430Z,99.50
2019-03-17T19:42:57.956Z,99.40
2019-03-17T19:45:14.773Z,99.90
2019-03-17T19:47:41.071Z,99.90
2019-03-17T19:50:12.387Z,99.90
2019-03-17T19:52:38.561Z,99.90
2019-03-17T19:55:06.551Z,99.90
2019-03-17T19:57:32.776Z,99.90
2019-03-17T19:59:58.946Z,99.90
2019-03-17T20:02:25.140Z,99.90
2019-03-17T20:04:51.214Z,99.90
2019-03-17T20:07:17.275Z,99.80
2019-03-17T20:09:43.385Z,99.90
2019-03-17T20:12:09.477Z,99.90
2019-03-17T20:14:35.574Z,99.90
2019-03-17T20:17:01.675Z,99.90
2019-03-17T20:19:28.120Z,99.90
2019-03-17T20:21:54.378Z,99.90
2019-03-17T20:24:20.583Z,99.90
2019-03-17T20:26:46.752Z,99.90
2019-03-17T20:29:12.823Z,99.90
2019-03-17T20:31:39.003Z,99.90
2019-03-17T20:34:05.177Z,99.90
2019-03-17T20:36:31.429Z,99.90
2019-03-17T20:38:57.635Z,99.90
2019-03-17T20:41:23.792Z,99.90
2019-03-17T20:43:50.070Z,99.90
2019-03-17T20:46:16.224Z,99.90
2019-03-17T20:48:42.296Z,99.90
2019-03-17T20:51:08.405Z,99.90
2019-03-17T20:53:34.575Z,99.90
2019-03-17T20:56:00.738Z,99.90
2019-03-17T20:58:26.929Z,99.90
2019-03-17T21:00:53.091Z,99.90
2019-03-17T21:03:19.201Z,99.90
2019-03-17T21:05:45.390Z,99.90
2019-03-17T21:08:11.471Z,99.90
2019-03-17T21:10:37.553Z,99.90
2019-03-17T21:13:03.748Z,99.90
2019-03-17T21:15:29.850Z,99.90
2019-03-17T21:17:56.208Z,99.90
2019-03-17T21:20:23.391Z,99.90
2019-03-17T21:22:49.479Z,99.90
2019-03-17T21:25:15.680Z,99.90
2019-03-17T21:27:41.781Z,99.90
2019-03-17T21:30:11.676Z,99.90
2019-03-17T21:32:37.753Z,99.90
2019-03-17T21:35:03.936Z,99.90
2019-03-17T21:37:30.010Z,99.90
2019-03-17T21:39:56.099Z,99.90
2019-03-17T21:42:22.291Z,99.90
2019-03-17T21:44:48.351Z,99.90
2019-03-17T21:47:34.316Z,99.90
2019-03-17T21:50:00.502Z,99.90
2019-03-17T21:52:26.759Z,99.90
2019-03-17T21:54:52.913Z,99.90
2019-03-17T21:57:19.052Z,99.90
2019-03-17T21:59:45.238Z,99.90
2019-03-17T22:02:13.057Z,99.90
2019-03-17T22:04:39.311Z,99.90
2019-03-17T22:07:05.436Z,99.90
2019-03-17T22:09:31.561Z,99.90
2019-03-17T22:11:57.892Z,99.90
2019-03-17T22:14:23.978Z,99.90
2019-03-17T22:16:50.056Z,99.90
2019-03-17T22:19:16.132Z,99.90
2019-03-17T22:21:42.230Z,99.90
2019-03-17T22:24:08.389Z,99.90
2019-03-17T22:26:34.479Z,99.90
2019-03-17T22:29:00.661Z,99.90
2019-03-17T22:31:26.728Z,99.90
2019-03-17T22:33:52.779Z,99.90
2019-03-17T22:36:18.876Z,99.90
2019-03-17T22:38:44.940Z,99.90
2019-03-17T22:41:11.035Z,99.90
2019-03-17T22:43:37.113Z,99.90
2019-03-17T22:46:03.351Z,99.90
2019-03-17T22:48:29.431Z,99.90
2019-03-17T22:50:55.499Z,99.90
2019-03-17T22:53:21.664Z,99.90
2019-03-17T22:55:47.750Z,99.90
2019-03-17T22:58:13.829Z,99.90
2019-03-17T23:00:41.609Z,99.90
2019-03-17T23:03:07.809Z,99.90
2019-03-17T23:05:33.870Z,99.90
2019-03-17T23:07:59.974Z,99.90
2019-03-17T23:10:26.040Z,99.90
2019-03-17T23:12:52.115Z,99.90
2019-03-17T23:15:18.228Z,99.90
2019-03-17T23:17:44.297Z,99.90
2019-03-17T23:20:12.054Z,99.90
2019-03-17T23:22:38.170Z,99.90
2019-03-17T23:25:06.542Z,99.90
2019-03-17T23:27:32.699Z,99.90
2019-03-17T23:29:58.781Z,99.90
2019-03-17T23:32:24.935Z,99.90
2019-03-17T23:34:51.054Z,99.90
2019-03-17T23:37:17.147Z,99.90
2019-03-17T23:39:43.292Z,99.90
2019-03-17T23:42:09.360Z,99.90
2019-03-17T23:44:35.463Z,99.90
2019-03-17T23:47:01.553Z,99.90
2019-03-17T23:49:27.613Z,99.90
2019-03-17T23:51:53.812Z,99.90
2019-03-17T23:54:19.891Z,99.90
2019-03-17T23:56:45.965Z,99.90
2019-03-17T23:59:12.035Z,99.90
